sensor_id;sensor_type;location;lat;lon;timestamp;P1;durP1;ratioP1;P2;durP2;ratioP2
19836;SDS011;10079;55.740;37.662;2023-04-24T00:02:32;24.57;;;8.00;;
19836;SDS011;10079;55.740;37.662;2023-04-24T00:05:14;13.97;;;8.17;;
19836;SDS011;10079;55.740;37.662;2023-04-24T00:07:54;29.33;;;9.90;;
19836;SDS011;10079;55.740;37.662;2023-04-24T00:10:34;22.47;;;9.40;;
19836;SDS011;10079;55.740;37.662;2023-04-24T00:13:15;22.63;;;9.80;;
19836;SDS011;10079;55.740;37.662;2023-04-24T00:15:56;25.40;;;12.50;;
19836;SDS011;10079;55.740;37.662;2023-04-24T00:18:37;22.30;;;11.47;;
19836;SDS011;10079;55.740;37.662;2023-04-24T00:21:18;31.80;;;13.17;;
19836;SDS011;10079;55.740;37.662;2023-04-24T00:23:58;29.23;;;14.13;;
19836;SDS011;10079;55.740;37.662;2023-04-24T00:26:39;28.23;;;13.90;;
19836;SDS011;10079;55.740;37.662;2023-04-24T00:29:20;29.97;;;13.43;;
19836;SDS011;10079;55.740;37.662;2023-04-24T00:32:01;33.03;;;12.83;;
19836;SDS011;10079;55.740;37.662;2023-04-24T00:34:50;24.20;;;13.43;;
19836;SDS011;10079;55.740;37.662;2023-04-24T00:37:35;31.07;;;14.10;;
19836;SDS011;10079;55.740;37.662;2023-04-24T00:40:28;28.40;;;14.57;;
19836;SDS011;10079;55.740;37.662;2023-04-24T00:43:17;34.17;;;13.80;;
19836;SDS011;10079;55.740;37.662;2023-04-24T00:46:01;30.83;;;13.73;;
19836;SDS011;10079;55.740;37.662;2023-04-24T00:48:45;26.37;;;13.50;;
19836;SDS011;10079;55.740;37.662;2023-04-24T00:51:29;31.83;;;12.87;;
19836;SDS011;10079;55.740;37.662;2023-04-24T01:04:45;32.83;;;14.27;;
19836;SDS011;10079;55.740;37.662;2023-04-24T01:07:39;30.80;;;13.53;;
19836;SDS011;10079;55.740;37.662;2023-04-24T01:10:19;34.40;;;13.67;;
19836;SDS011;10079;55.740;37.662;2023-04-24T01:13:00;28.23;;;14.23;;
19836;SDS011;10079;55.740;37.662;2023-04-24T01:15:41;31.70;;;14.87;;
19836;SDS011;10079;55.740;37.662;2023-04-24T01:18:22;28.17;;;14.70;;
19836;SDS011;10079;55.740;37.662;2023-04-24T01:21:15;36.00;;;16.27;;
19836;SDS011;10079;55.740;37.662;2023-04-24T01:23:59;31.37;;;16.03;;
19836;SDS011;10079;55.740;37.662;2023-04-24T01:26:52;33.57;;;15.20;;
19836;SDS011;10079;55.740;37.662;2023-04-24T01:29:36;36.33;;;15.50;;
19836;SDS011;10079;55.740;37.662;2023-04-24T01:32:17;31.33;;;15.50;;
19836;SDS011;10079;55.740;37.662;2023-04-24T01:34:57;32.37;;;16.17;;
19836;SDS011;10079;55.740;37.662;2023-04-24T01:37:38;29.37;;;14.90;;
19836;SDS011;10079;55.740;37.662;2023-04-24T01:40:22;28.53;;;15.70;;
19836;SDS011;10079;55.740;37.662;2023-04-24T01:43:12;29.17;;;14.23;;
19836;SDS011;10079;55.740;37.662;2023-04-24T01:45:53;31.57;;;15.07;;
19836;SDS011;10079;55.740;37.662;2023-04-24T01:48:42;32.33;;;14.33;;
19836;SDS011;10079;55.740;37.662;2023-04-24T01:51:26;32.17;;;14.07;;
19836;SDS011;10079;55.740;37.662;2023-04-24T01:54:07;29.57;;;14.43;;
19836;SDS011;10079;55.740;37.662;2023-04-24T01:56:52;27.70;;;14.17;;
19836;SDS011;10079;55.740;37.662;2023-04-24T01:59:37;26.23;;;13.83;;
19836;SDS011;10079;55.740;37.662;2023-04-24T02:02:21;29.27;;;13.77;;
19836;SDS011;10079;55.740;37.662;2023-04-24T02:05:13;28.30;;;14.00;;
19836;SDS011;10079;55.740;37.662;2023-04-24T02:07:57;31.97;;;13.47;;
19836;SDS011;10079;55.740;37.662;2023-04-24T02:10:42;30.07;;;14.10;;
19836;SDS011;10079;55.740;37.662;2023-04-24T02:13:34;27.33;;;12.70;;
19836;SDS011;10079;55.740;37.662;2023-04-24T02:16:15;31.40;;;11.90;;
19836;SDS011;10079;55.740;37.662;2023-04-24T02:18:56;27.67;;;12.53;;
19836;SDS011;10079;55.740;37.662;2023-04-24T02:21:37;31.93;;;12.57;;
19836;SDS011;10079;55.740;37.662;2023-04-24T02:24:30;29.87;;;13.83;;
19836;SDS011;10079;55.740;37.662;2023-04-24T02:27:12;28.70;;;12.00;;
19836;SDS011;10079;55.740;37.662;2023-04-24T02:29:53;21.27;;;11.80;;
19836;SDS011;10079;55.740;37.662;2023-04-24T02:32:33;22.60;;;11.93;;
19836;SDS011;10079;55.740;37.662;2023-04-24T02:35:17;24.40;;;12.20;;
19836;SDS011;10079;55.740;37.662;2023-04-24T02:37:58;22.07;;;11.77;;
19836;SDS011;10079;55.740;37.662;2023-04-24T02:40:43;17.90;;;11.07;;
19836;SDS011;10079;55.740;37.662;2023-04-24T02:43:24;27.07;;;11.37;;
19836;SDS011;10079;55.740;37.662;2023-04-24T02:46:09;31.27;;;12.47;;
19836;SDS011;10079;55.740;37.662;2023-04-24T02:59:21;25.37;;;11.60;;
19836;SDS011;10079;55.740;37.662;2023-04-24T03:02:02;25.13;;;11.97;;
19836;SDS011;10079;55.740;37.662;2023-04-24T03:04:55;21.80;;;11.63;;
19836;SDS011;10079;55.740;37.662;2023-04-24T03:07:39;24.03;;;11.83;;
19836;SDS011;10079;55.740;37.662;2023-04-24T03:10:22;22.17;;;12.10;;
19836;SDS011;10079;55.740;37.662;2023-04-24T03:13:03;28.40;;;12.50;;
19836;SDS011;10079;55.740;37.662;2023-04-24T03:15:55;21.27;;;12.10;;
19836;SDS011;10079;55.740;37.662;2023-04-24T03:18:44;23.93;;;12.23;;
19836;SDS011;10079;55.740;37.662;2023-04-24T03:21:25;25.90;;;12.83;;
19836;SDS011;10079;55.740;37.662;2023-04-24T03:24:07;24.30;;;11.73;;
19836;SDS011;10079;55.740;37.662;2023-04-24T03:37:36;24.40;;;12.63;;
19836;SDS011;10079;55.740;37.662;2023-04-24T03:40:29;25.27;;;12.70;;
19836;SDS011;10079;55.740;37.662;2023-04-24T03:43:13;25.70;;;12.80;;
19836;SDS011;10079;55.740;37.662;2023-04-24T03:45:57;28.47;;;13.83;;
19836;SDS011;10079;55.740;37.662;2023-04-24T03:48:38;23.10;;;12.63;;
19836;SDS011;10079;55.740;37.662;2023-04-24T03:51:19;26.43;;;13.93;;
19836;SDS011;10079;55.740;37.662;2023-04-24T03:54:00;29.13;;;13.60;;
19836;SDS011;10079;55.740;37.662;2023-04-24T03:56:44;24.77;;;14.03;;
19836;SDS011;10079;55.740;37.662;2023-04-24T03:59:25;23.10;;;14.43;;
19836;SDS011;10079;55.740;37.662;2023-04-24T04:02:05;27.30;;;14.13;;
19836;SDS011;10079;55.740;37.662;2023-04-24T04:04:50;30.37;;;15.37;;
19836;SDS011;10079;55.740;37.662;2023-04-24T04:07:39;26.27;;;14.67;;
19836;SDS011;10079;55.740;37.662;2023-04-24T04:20:52;24.67;;;17.13;;
19836;SDS011;10079;55.740;37.662;2023-04-24T04:23:32;29.97;;;17.97;;
19836;SDS011;10079;55.740;37.662;2023-04-24T04:26:13;27.58;;;15.27;;
19836;SDS011;10079;55.740;37.662;2023-04-24T04:28:54;26.57;;;14.93;;
19836;SDS011;10079;55.740;37.662;2023-04-24T04:31:35;22.47;;;14.20;;
19836;SDS011;10079;55.740;37.662;2023-04-24T04:34:19;25.25;;;15.07;;
19836;SDS011;10079;55.740;37.662;2023-04-24T04:37:04;25.33;;;15.40;;
19836;SDS011;10079;55.740;37.662;2023-04-24T04:39:48;19.90;;;14.65;;
19836;SDS011;10079;55.740;37.662;2023-04-24T04:42:29;22.65;;;15.25;;
19836;SDS011;10079;55.740;37.662;2023-04-24T04:45:10;26.08;;;15.15;;
19836;SDS011;10079;55.740;37.662;2023-04-24T04:48:04;24.42;;;13.98;;
19836;SDS011;10079;55.740;37.662;2023-04-24T04:50:44;19.40;;;14.60;;
19836;SDS011;10079;55.740;37.662;2023-04-24T04:53:25;18.23;;;13.32;;
19836;SDS011;10079;55.740;37.662;2023-04-24T05:06:37;18.92;;;12.75;;
19836;SDS011;10079;55.740;37.662;2023-04-24T05:09:18;18.35;;;12.57;;
19836;SDS011;10079;55.740;37.662;2023-04-24T05:11:59;20.67;;;12.27;;
19836;SDS011;10079;55.740;37.662;2023-04-24T05:14:40;18.17;;;11.65;;
19836;SDS011;10079;55.740;37.662;2023-04-24T05:17:32;19.58;;;12.88;;
19836;SDS011;10079;55.740;37.662;2023-04-24T05:20:24;23.52;;;12.98;;
19836;SDS011;10079;55.740;37.662;2023-04-24T05:23:04;21.65;;;12.77;;
19836;SDS011;10079;55.740;37.662;2023-04-24T05:25:45;27.50;;;13.55;;
19836;SDS011;10079;55.740;37.662;2023-04-24T05:28:26;19.83;;;13.18;;
19836;SDS011;10079;55.740;37.662;2023-04-24T05:31:06;24.15;;;13.15;;
19836;SDS011;10079;55.740;37.662;2023-04-24T05:33:47;19.42;;;12.70;;
19836;SDS011;10079;55.740;37.662;2023-04-24T05:36:28;17.98;;;12.50;;
19836;SDS011;10079;55.740;37.662;2023-04-24T05:49:59;22.67;;;12.45;;
19836;SDS011;10079;55.740;37.662;2023-04-24T06:03:11;20.80;;;12.02;;
19836;SDS011;10079;55.740;37.662;2023-04-24T06:05:55;14.43;;;11.30;;
19836;SDS011;10079;55.740;37.662;2023-04-24T06:08:36;22.73;;;12.27;;
19836;SDS011;10079;55.740;37.662;2023-04-24T06:11:20;19.02;;;11.45;;
19836;SDS011;10079;55.740;37.662;2023-04-24T06:24:36;15.77;;;11.57;;
19836;SDS011;10079;55.740;37.662;2023-04-24T06:27:17;17.23;;;11.48;;
19836;SDS011;10079;55.740;37.662;2023-04-24T06:30:07;20.35;;;11.50;;
19836;SDS011;10079;55.740;37.662;2023-04-24T06:32:49;22.40;;;12.50;;
19836;SDS011;10079;55.740;37.662;2023-04-24T06:46:06;19.05;;;10.35;;
19836;SDS011;10079;55.740;37.662;2023-04-24T06:48:47;10.20;;;9.02;;
19836;SDS011;10079;55.740;37.662;2023-04-24T06:51:28;14.50;;;9.50;;
19836;SDS011;10079;55.740;37.662;2023-04-24T06:54:12;16.83;;;9.50;;
19836;SDS011;10079;55.740;37.662;2023-04-24T06:56:52;15.20;;;9.30;;
19836;SDS011;10079;55.740;37.662;2023-04-24T06:59:33;12.85;;;9.18;;
19836;SDS011;10079;55.740;37.662;2023-04-24T07:02:14;15.15;;;9.63;;
19836;SDS011;10079;55.740;37.662;2023-04-24T07:04:58;13.43;;;9.18;;
19836;SDS011;10079;55.740;37.662;2023-04-24T07:07:43;16.48;;;8.75;;
19836;SDS011;10079;55.740;37.662;2023-04-24T07:10:33;11.63;;;7.15;;
19836;SDS011;10079;55.740;37.662;2023-04-24T07:13:17;9.27;;;7.43;;
19836;SDS011;10079;55.740;37.662;2023-04-24T07:15:58;8.27;;;6.70;;
19836;SDS011;10079;55.740;37.662;2023-04-24T07:18:39;7.75;;;6.28;;
19836;SDS011;10079;55.740;37.662;2023-04-24T07:21:22;7.37;;;5.50;;
19836;SDS011;10079;55.740;37.662;2023-04-24T07:34:40;6.25;;;5.53;;
19836;SDS011;10079;55.740;37.662;2023-04-24T07:37:20;11.65;;;5.65;;
19836;SDS011;10079;55.740;37.662;2023-04-24T07:40:13;7.45;;;4.95;;
19836;SDS011;10079;55.740;37.662;2023-04-24T07:42:54;6.85;;;5.55;;
19836;SDS011;10079;55.740;37.662;2023-04-24T08:06:48;8.00;;;5.78;;
19836;SDS011;10079;55.740;37.662;2023-04-24T08:09:33;5.12;;;4.62;;
19836;SDS011;10079;55.740;37.662;2023-04-24T08:12:17;7.75;;;5.40;;
19836;SDS011;10079;55.740;37.662;2023-04-24T08:15:01;6.82;;;5.22;;
19836;SDS011;10079;55.740;37.662;2023-04-24T08:17:42;7.05;;;4.60;;
19836;SDS011;10079;55.740;37.662;2023-04-24T08:20:27;5.72;;;5.05;;
19836;SDS011;10079;55.740;37.662;2023-04-24T08:26:01;5.97;;;5.37;;
19836;SDS011;10079;55.740;37.662;2023-04-24T08:39:13;6.57;;;5.07;;
19836;SDS011;10079;55.740;37.662;2023-04-24T08:41:55;7.18;;;5.28;;
19836;SDS011;10079;55.740;37.662;2023-04-24T08:44:38;6.25;;;5.43;;
19836;SDS011;10079;55.740;37.662;2023-04-24T08:47:27;5.65;;;4.87;;
19836;SDS011;10079;55.740;37.662;2023-04-24T08:50:16;7.70;;;5.50;;
19836;SDS011;10079;55.740;37.662;2023-04-24T08:53:01;6.85;;;5.10;;
19836;SDS011;10079;55.740;37.662;2023-04-24T08:55:52;7.00;;;5.65;;
19836;SDS011;10079;55.740;37.662;2023-04-24T08:58:36;5.47;;;4.85;;
19836;SDS011;10079;55.740;37.662;2023-04-24T09:01:18;5.68;;;4.75;;
19836;SDS011;10079;55.740;37.662;2023-04-24T09:04:06;7.22;;;5.03;;
19836;SDS011;10079;55.740;37.662;2023-04-24T09:06:59;5.93;;;4.55;;
19836;SDS011;10079;55.740;37.662;2023-04-24T09:09:40;6.82;;;5.22;;
19836;SDS011;10079;55.740;37.662;2023-04-24T09:22:57;5.10;;;4.60;;
19836;SDS011;10079;55.740;37.662;2023-04-24T09:25:41;7.78;;;5.18;;
19836;SDS011;10079;55.740;37.662;2023-04-24T09:28:26;7.12;;;5.00;;
19836;SDS011;10079;55.740;37.662;2023-04-24T09:31:11;7.87;;;4.95;;
19836;SDS011;10079;55.740;37.662;2023-04-24T09:33:59;8.07;;;5.28;;
19836;SDS011;10079;55.740;37.662;2023-04-24T09:36:44;6.40;;;5.00;;
19836;SDS011;10079;55.740;37.662;2023-04-24T09:39:25;5.68;;;5.07;;
19836;SDS011;10079;55.740;37.662;2023-04-24T09:42:06;4.90;;;4.40;;
19836;SDS011;10079;55.740;37.662;2023-04-24T09:44:50;8.73;;;5.15;;
19836;SDS011;10079;55.740;37.662;2023-04-24T09:47:43;5.93;;;4.53;;
19836;SDS011;10079;55.740;37.662;2023-04-24T09:50:32;5.15;;;4.68;;
19836;SDS011;10079;55.740;37.662;2023-04-24T09:53:25;5.25;;;4.75;;
19836;SDS011;10079;55.740;37.662;2023-04-24T09:56:07;6.45;;;4.87;;
19836;SDS011;10079;55.740;37.662;2023-04-24T09:58:48;7.60;;;4.93;;
19836;SDS011;10079;55.740;37.662;2023-04-24T10:01:37;6.93;;;4.90;;
19836;SDS011;10079;55.740;37.662;2023-04-24T10:04:26;7.93;;;5.20;;
19836;SDS011;10079;55.740;37.662;2023-04-24T10:07:07;7.20;;;4.72;;
19836;SDS011;10079;55.740;37.662;2023-04-24T10:09:48;8.88;;;5.62;;
19836;SDS011;10079;55.740;37.662;2023-04-24T10:12:32;6.45;;;4.65;;
19836;SDS011;10079;55.740;37.662;2023-04-24T10:15:14;4.90;;;4.50;;
19836;SDS011;10079;55.740;37.662;2023-04-24T10:17:55;5.47;;;4.43;;
19836;SDS011;10079;55.740;37.662;2023-04-24T10:20:37;6.78;;;5.32;;
19836;SDS011;10079;55.740;37.662;2023-04-24T10:23:17;5.62;;;5.10;;
19836;SDS011;10079;55.740;37.662;2023-04-24T10:25:58;9.30;;;5.35;;
19836;SDS011;10079;55.740;37.662;2023-04-24T10:28:39;5.57;;;4.50;;
19836;SDS011;10079;55.740;37.662;2023-04-24T10:31:20;6.85;;;4.85;;
19836;SDS011;10079;55.740;37.662;2023-04-24T10:34:01;5.60;;;5.07;;
19836;SDS011;10079;55.740;37.662;2023-04-24T10:36:43;5.22;;;4.68;;
19836;SDS011;10079;55.740;37.662;2023-04-24T10:39:23;5.93;;;5.37;;
19836;SDS011;10079;55.740;37.662;2023-04-24T10:42:15;6.80;;;5.10;;
19836;SDS011;10079;55.740;37.662;2023-04-24T10:45:16;5.80;;;4.93;;
19836;SDS011;10079;55.740;37.662;2023-04-24T10:47:58;6.60;;;4.50;;
19836;SDS011;10079;55.740;37.662;2023-04-24T10:50:51;5.47;;;4.80;;
19836;SDS011;10079;55.740;37.662;2023-04-24T10:53:35;7.47;;;4.90;;
19836;SDS011;10079;55.740;37.662;2023-04-24T10:56:19;9.40;;;5.07;;
19836;SDS011;10079;55.740;37.662;2023-04-24T10:59:09;7.70;;;5.17;;
19836;SDS011;10079;55.740;37.662;2023-04-24T11:01:54;6.40;;;5.33;;
19836;SDS011;10079;55.740;37.662;2023-04-24T11:04:46;6.67;;;4.83;;
19836;SDS011;10079;55.740;37.662;2023-04-24T11:10:30;5.77;;;4.47;;
19836;SDS011;10079;55.740;37.662;2023-04-24T11:13:15;5.83;;;4.90;;
19836;SDS011;10079;55.740;37.662;2023-04-24T11:16:13;6.03;;;4.77;;
19836;SDS011;10079;55.740;37.662;2023-04-24T11:19:01;8.80;;;5.33;;
19836;SDS011;10079;55.740;37.662;2023-04-24T11:21:48;5.20;;;4.60;;
19836;SDS011;10079;55.740;37.662;2023-04-24T11:24:30;4.70;;;4.30;;
19836;SDS011;10079;55.740;37.662;2023-04-24T11:27:13;6.57;;;4.20;;
19836;SDS011;10079;55.740;37.662;2023-04-24T11:30:02;6.30;;;4.53;;
19836;SDS011;10079;55.740;37.662;2023-04-24T11:32:47;6.60;;;4.60;;
19836;SDS011;10079;55.740;37.662;2023-04-24T11:35:24;4.90;;;4.33;;
19836;SDS011;10079;55.740;37.662;2023-04-24T11:38:05;5.80;;;4.40;;
19836;SDS011;10079;55.740;37.662;2023-04-24T11:40:47;10.47;;;5.10;;
19836;SDS011;10079;55.740;37.662;2023-04-24T11:43:28;6.27;;;4.47;;
19836;SDS011;10079;55.740;37.662;2023-04-24T11:46:08;6.40;;;4.50;;
19836;SDS011;10079;55.740;37.662;2023-04-24T11:48:49;12.30;;;6.90;;
19836;SDS011;10079;55.740;37.662;2023-04-24T11:51:38;6.40;;;4.03;;
19836;SDS011;10079;55.740;37.662;2023-04-24T11:54:19;8.50;;;4.50;;
19836;SDS011;10079;55.740;37.662;2023-04-24T12:07:40;7.27;;;4.43;;
19836;SDS011;10079;55.740;37.662;2023-04-24T12:10:21;8.50;;;4.77;;
19836;SDS011;10079;55.740;37.662;2023-04-24T12:13:02;5.60;;;4.27;;
19836;SDS011;10079;55.740;37.662;2023-04-24T12:15:44;6.00;;;4.47;;
19836;SDS011;10079;55.740;37.662;2023-04-24T12:18:34;4.97;;;4.27;;
19836;SDS011;10079;55.740;37.662;2023-04-24T12:21:16;10.03;;;6.07;;
19836;SDS011;10079;55.740;37.662;2023-04-24T12:34:43;7.83;;;4.73;;
19836;SDS011;10079;55.740;37.662;2023-04-24T12:37:24;6.33;;;4.67;;
19836;SDS011;10079;55.740;37.662;2023-04-24T12:40:07;8.27;;;4.77;;
19836;SDS011;10079;55.740;37.662;2023-04-24T12:42:50;5.77;;;4.87;;
19836;SDS011;10079;55.740;37.662;2023-04-24T12:45:34;6.43;;;4.47;;
19836;SDS011;10079;55.740;37.662;2023-04-24T12:48:27;5.93;;;4.50;;
19836;SDS011;10079;55.740;37.662;2023-04-24T12:51:07;6.30;;;4.17;;
19836;SDS011;10079;55.740;37.662;2023-04-24T12:53:48;7.70;;;4.33;;
19836;SDS011;10079;55.740;37.662;2023-04-24T12:56:29;5.60;;;4.20;;
19836;SDS011;10079;55.740;37.662;2023-04-24T12:59:10;6.27;;;4.27;;
19836;SDS011;10079;55.740;37.662;2023-04-24T13:01:51;6.07;;;4.30;;
19836;SDS011;10079;55.740;37.662;2023-04-24T13:04:31;7.27;;;4.53;;
19836;SDS011;10079;55.740;37.662;2023-04-24T13:07:12;5.90;;;4.47;;
19836;SDS011;10079;55.740;37.662;2023-04-24T13:09:54;5.90;;;4.40;;
19836;SDS011;10079;55.740;37.662;2023-04-24T13:12:34;4.83;;;4.33;;
19836;SDS011;10079;55.740;37.662;2023-04-24T13:15:15;4.97;;;3.87;;
19836;SDS011;10079;55.740;37.662;2023-04-24T13:17:56;8.17;;;4.10;;
19836;SDS011;10079;55.740;37.662;2023-04-24T13:20:45;7.57;;;4.10;;
19836;SDS011;10079;55.740;37.662;2023-04-24T13:23:30;7.10;;;3.73;;
19836;SDS011;10079;55.740;37.662;2023-04-24T13:26:19;6.33;;;4.27;;
19836;SDS011;10079;55.740;37.662;2023-04-24T13:29:00;8.40;;;4.13;;
19836;SDS011;10079;55.740;37.662;2023-04-24T13:31:41;7.23;;;4.00;;
19836;SDS011;10079;55.740;37.662;2023-04-24T13:34:22;5.53;;;4.00;;
19836;SDS011;10079;55.740;37.662;2023-04-24T13:37:03;7.53;;;3.87;;
19836;SDS011;10079;55.740;37.662;2023-04-24T13:39:48;5.43;;;3.60;;
19836;SDS011;10079;55.740;37.662;2023-04-24T13:42:40;5.50;;;4.20;;
19836;SDS011;10079;55.740;37.662;2023-04-24T13:45:34;6.93;;;4.20;;
19836;SDS011;10079;55.740;37.662;2023-04-24T13:48:27;4.77;;;3.60;;
19836;SDS011;10079;55.740;37.662;2023-04-24T13:51:11;6.13;;;4.10;;
19836;SDS011;10079;55.740;37.662;2023-04-24T14:04:23;7.40;;;4.63;;
19836;SDS011;10079;55.740;37.662;2023-04-24T14:07:07;6.90;;;3.93;;
19836;SDS011;10079;55.740;37.662;2023-04-24T14:20:23;5.13;;;3.67;;
19836;SDS011;10079;55.740;37.662;2023-04-24T14:23:04;6.47;;;4.30;;
19836;SDS011;10079;55.740;37.662;2023-04-24T14:25:45;8.70;;;4.53;;
19836;SDS011;10079;55.740;37.662;2023-04-24T14:28:26;6.00;;;4.07;;
19836;SDS011;10079;55.740;37.662;2023-04-24T14:31:07;7.43;;;4.43;;
19836;SDS011;10079;55.740;37.662;2023-04-24T14:33:48;8.70;;;4.40;;
19836;SDS011;10079;55.740;37.662;2023-04-24T14:36:32;5.13;;;3.73;;
19836;SDS011;10079;55.740;37.662;2023-04-24T14:39:13;8.30;;;4.07;;
19836;SDS011;10079;55.740;37.662;2023-04-24T14:41:54;6.77;;;3.90;;
19836;SDS011;10079;55.740;37.662;2023-04-24T14:44:35;6.67;;;4.13;;
19836;SDS011;10079;55.740;37.662;2023-04-24T14:47:17;6.47;;;3.77;;
19836;SDS011;10079;55.740;37.662;2023-04-24T14:50:01;8.00;;;3.60;;
19836;SDS011;10079;55.740;37.662;2023-04-24T14:52:42;7.20;;;4.07;;
19836;SDS011;10079;55.740;37.662;2023-04-24T14:55:24;5.23;;;3.80;;
19836;SDS011;10079;55.740;37.662;2023-04-24T14:58:04;6.50;;;4.50;;
19836;SDS011;10079;55.740;37.662;2023-04-24T15:00:45;7.10;;;3.80;;
19836;SDS011;10079;55.740;37.662;2023-04-24T15:03:27;6.90;;;4.00;;
19836;SDS011;10079;55.740;37.662;2023-04-24T15:06:08;5.57;;;4.00;;
19836;SDS011;10079;55.740;37.662;2023-04-24T15:08:48;6.57;;;3.93;;
19836;SDS011;10079;55.740;37.662;2023-04-24T15:11:29;6.43;;;4.27;;
19836;SDS011;10079;55.740;37.662;2023-04-24T15:14:10;7.10;;;4.33;;
19836;SDS011;10079;55.740;37.662;2023-04-24T15:17:03;7.60;;;3.80;;
19836;SDS011;10079;55.740;37.662;2023-04-24T15:19:47;5.73;;;3.97;;
19836;SDS011;10079;55.740;37.662;2023-04-24T15:22:28;8.30;;;4.67;;
19836;SDS011;10079;55.740;37.662;2023-04-24T15:25:10;10.40;;;4.10;;
19836;SDS011;10079;55.740;37.662;2023-04-24T15:27:50;6.43;;;3.97;;
19836;SDS011;10079;55.740;37.662;2023-04-24T15:30:43;6.10;;;4.20;;
19836;SDS011;10079;55.740;37.662;2023-04-24T15:33:24;7.47;;;3.70;;
19836;SDS011;10079;55.740;37.662;2023-04-24T15:36:05;7.67;;;3.93;;
19836;SDS011;10079;55.740;37.662;2023-04-24T15:38:46;9.17;;;4.60;;
19836;SDS011;10079;55.740;37.662;2023-04-24T15:41:39;6.63;;;4.23;;
19836;SDS011;10079;55.740;37.662;2023-04-24T15:44:20;6.80;;;3.73;;
19836;SDS011;10079;55.740;37.662;2023-04-24T15:47:01;8.93;;;4.23;;
19836;SDS011;10079;55.740;37.662;2023-04-24T15:49:42;5.80;;;3.77;;
19836;SDS011;10079;55.740;37.662;2023-04-24T15:52:22;8.90;;;4.30;;
19836;SDS011;10079;55.740;37.662;2023-04-24T15:55:12;6.47;;;3.90;;
19836;SDS011;10079;55.740;37.662;2023-04-24T15:57:53;10.10;;;4.00;;
19836;SDS011;10079;55.740;37.662;2023-04-24T16:00:37;6.30;;;3.80;;
19836;SDS011;10079;55.740;37.662;2023-04-24T16:03:19;11.97;;;4.87;;
19836;SDS011;10079;55.740;37.662;2023-04-24T16:06:03;10.43;;;4.10;;
19836;SDS011;10079;55.740;37.662;2023-04-24T16:08:44;7.50;;;4.10;;
19836;SDS011;10079;55.740;37.662;2023-04-24T16:32:31;10.50;;;4.70;;
19836;SDS011;10079;55.740;37.662;2023-04-24T16:35:15;9.07;;;4.77;;
19836;SDS011;10079;55.740;37.662;2023-04-24T16:37:59;8.83;;;4.37;;
19836;SDS011;10079;55.740;37.662;2023-04-24T16:40:49;7.63;;;4.43;;
19836;SDS011;10079;55.740;37.662;2023-04-24T16:43:38;10.70;;;5.00;;
19836;SDS011;10079;55.740;37.662;2023-04-24T16:46:22;6.97;;;4.50;;
19836;SDS011;10079;55.740;37.662;2023-04-24T16:59:39;10.00;;;4.73;;
19836;SDS011;10079;55.740;37.662;2023-04-24T17:02:23;9.17;;;4.73;;
19836;SDS011;10079;55.740;37.662;2023-04-24T17:05:05;10.37;;;5.03;;
19836;SDS011;10079;55.740;37.662;2023-04-24T17:07:52;7.93;;;4.30;;
19836;SDS011;10079;55.740;37.662;2023-04-24T17:21:03;11.80;;;5.77;;
19836;SDS011;10079;55.740;37.662;2023-04-24T17:23:47;6.87;;;5.27;;
19836;SDS011;10079;55.740;37.662;2023-04-24T17:26:28;12.90;;;5.23;;
19836;SDS011;10079;55.740;37.662;2023-04-24T17:29:11;8.17;;;5.17;;
19836;SDS011;10079;55.740;37.662;2023-04-24T17:31:52;10.73;;;5.50;;
19836;SDS011;10079;55.740;37.662;2023-04-24T17:34:34;8.70;;;4.57;;
19836;SDS011;10079;55.740;37.662;2023-04-24T17:37:15;11.40;;;5.50;;
19836;SDS011;10079;55.740;37.662;2023-04-24T17:40:08;11.23;;;5.60;;
19836;SDS011;10079;55.740;37.662;2023-04-24T17:42:50;16.10;;;5.20;;
19836;SDS011;10079;55.740;37.662;2023-04-24T17:45:34;7.33;;;5.07;;
19836;SDS011;10079;55.740;37.662;2023-04-24T17:48:15;12.47;;;5.50;;
19836;SDS011;10079;55.740;37.662;2023-04-24T17:50:56;7.83;;;4.93;;
19836;SDS011;10079;55.740;37.662;2023-04-24T17:53:36;10.60;;;5.10;;
19836;SDS011;10079;55.740;37.662;2023-04-24T17:56:17;7.03;;;5.13;;
19836;SDS011;10079;55.740;37.662;2023-04-24T17:58:58;10.33;;;5.87;;
19836;SDS011;10079;55.740;37.662;2023-04-24T18:01:39;8.37;;;4.97;;
19836;SDS011;10079;55.740;37.662;2023-04-24T18:04:20;14.67;;;5.70;;
19836;SDS011;10079;55.740;37.662;2023-04-24T18:07:01;9.27;;;6.03;;
19836;SDS011;10079;55.740;37.662;2023-04-24T18:09:41;12.30;;;5.37;;
19836;SDS011;10079;55.740;37.662;2023-04-24T18:12:25;8.03;;;5.40;;
19836;SDS011;10079;55.740;37.662;2023-04-24T18:15:10;10.33;;;5.97;;
19836;SDS011;10079;55.740;37.662;2023-04-24T18:17:51;15.10;;;6.17;;
19836;SDS011;10079;55.740;37.662;2023-04-24T18:20:40;9.63;;;6.47;;
19836;SDS011;10079;55.740;37.662;2023-04-24T18:23:21;9.57;;;5.57;;
19836;SDS011;10079;55.740;37.662;2023-04-24T18:26:02;13.10;;;5.93;;
19836;SDS011;10079;55.740;37.662;2023-04-24T18:28:46;18.50;;;6.73;;
19836;SDS011;10079;55.740;37.662;2023-04-24T18:41:58;13.40;;;6.30;;
19836;SDS011;10079;55.740;37.662;2023-04-24T18:44:42;10.37;;;6.00;;
19836;SDS011;10079;55.740;37.662;2023-04-24T18:47:23;12.33;;;6.13;;
19836;SDS011;10079;55.740;37.662;2023-04-24T18:50:04;18.87;;;6.23;;
19836;SDS011;10079;55.740;37.662;2023-04-24T18:52:48;18.57;;;7.40;;
19836;SDS011;10079;55.740;37.662;2023-04-24T18:55:40;15.17;;;6.77;;
19836;SDS011;10079;55.740;37.662;2023-04-24T18:58:22;15.77;;;6.83;;
19836;SDS011;10079;55.740;37.662;2023-04-24T19:01:15;10.47;;;5.87;;
19836;SDS011;10079;55.740;37.662;2023-04-24T19:03:59;17.63;;;6.00;;
19836;SDS011;10079;55.740;37.662;2023-04-24T19:06:51;19.23;;;7.10;;
19836;SDS011;10079;55.740;37.662;2023-04-24T19:09:32;15.00;;;7.03;;
19836;SDS011;10079;55.740;37.662;2023-04-24T19:12:25;18.00;;;7.00;;
19836;SDS011;10079;55.740;37.662;2023-04-24T19:15:15;12.40;;;7.37;;
19836;SDS011;10079;55.740;37.662;2023-04-24T19:17:56;13.07;;;6.40;;
19836;SDS011;10079;55.740;37.662;2023-04-24T19:31:14;14.97;;;8.10;;
19836;SDS011;10079;55.740;37.662;2023-04-24T19:33:54;16.17;;;7.17;;
19836;SDS011;10079;55.740;37.662;2023-04-24T19:36:36;13.60;;;7.00;;
19836;SDS011;10079;55.740;37.662;2023-04-24T19:39:17;17.10;;;7.83;;
19836;SDS011;10079;55.740;37.662;2023-04-24T19:41:58;15.03;;;7.17;;
19836;SDS011;10079;55.740;37.662;2023-04-24T19:44:39;15.00;;;7.33;;
19836;SDS011;10079;55.740;37.662;2023-04-24T19:47:24;13.97;;;7.23;;
19836;SDS011;10079;55.740;37.662;2023-04-24T20:00:41;16.90;;;7.70;;
19836;SDS011;10079;55.740;37.662;2023-04-24T20:03:26;11.10;;;6.63;;
19836;SDS011;10079;55.740;37.662;2023-04-24T20:06:08;13.47;;;7.43;;
19836;SDS011;10079;55.740;37.662;2023-04-24T20:09:00;13.83;;;6.50;;
19836;SDS011;10079;55.740;37.662;2023-04-24T20:11:42;18.13;;;7.43;;
19836;SDS011;10079;55.740;37.662;2023-04-24T20:14:23;13.00;;;7.13;;
19836;SDS011;10079;55.740;37.662;2023-04-24T20:17:07;16.77;;;6.60;;
19836;SDS011;10079;55.740;37.662;2023-04-24T20:19:48;12.77;;;8.57;;
19836;SDS011;10079;55.740;37.662;2023-04-24T20:22:29;13.97;;;7.83;;
19836;SDS011;10079;55.740;37.662;2023-04-24T20:25:10;16.67;;;7.63;;
19836;SDS011;10079;55.740;37.662;2023-04-24T20:28:02;13.23;;;7.37;;
19836;SDS011;10079;55.740;37.662;2023-04-24T20:30:43;14.70;;;7.70;;